Terminal Aerodrome Forecast
Issued by NWS

Home | Current Version | Previous Version | Text Only | Print | Product List | Glossary On
Versions: 1 2 3 4 5 6 7 8 9 10 11 12 13 14 15 16 17 18 19
000
FTUS46 KEKA 161739
TAFCEC
TAF
KCEC 161739Z 1618/1718 16008KT P6SM FEW050 SCT150 BKN250
     FM170300 14005KT P6SM SCT050 BKN100 OVC250
     FM170900 14011G16KT P6SM BKN050 OVC100
     FM171700 16016G24KT P6SM VCSH SCT025 OVC050=

USA.gov is the U.S. government's official web portal to all federal, state and local government web resources and services.